createdAt,value
2022-08-09T00:00:35.624Z,11.80
2022-08-09T00:06:17.559Z,11.60
2022-08-09T00:10:51.842Z,11.70
2022-08-09T00:15:59.091Z,11.60
2022-08-09T00:21:05.216Z,11.90
2022-08-09T00:26:13.750Z,11.80
2022-08-09T00:32:00.055Z,12.10
2022-08-09T00:36:30.725Z,12.10
2022-08-09T00:44:15.599Z,11.90
2022-08-09T00:46:57.208Z,11.80
2022-08-09T00:51:55.939Z,12.00
2022-08-09T00:56:56.765Z,11.80
2022-08-09T01:02:03.528Z,11.40
2022-08-09T01:07:13.997Z,11.40
2022-08-09T01:12:16.793Z,11.00
2022-08-09T01:17:30.500Z,11.30
2022-08-09T01:22:56.733Z,11.40
2022-08-09T01:28:04.088Z,11.00
2022-08-09T01:33:11.768Z,10.90
2022-08-09T01:38:23.421Z,11.00
2022-08-09T01:43:28.930Z,11.30
2022-08-09T01:48:38.084Z,11.10
2022-08-09T01:53:45.414Z,11.30
2022-08-09T01:58:54.864Z,11.10
2022-08-09T02:04:02.895Z,10.80
2022-08-09T02:09:10.379Z,10.90
2022-08-09T02:14:25.460Z,11.10
2022-08-09T02:19:34.853Z,11.10
2022-08-09T02:24:37.000Z,11.10
2022-08-09T02:29:48.489Z,11.10
2022-08-09T02:34:59.836Z,11.10
2022-08-09T02:40:10.357Z,10.80
2022-08-09T02:45:20.015Z,10.90
2022-08-09T02:50:35.773Z,10.80
2022-08-09T02:55:57.464Z,10.80
2022-08-09T03:00:58.556Z,10.80
2022-08-09T03:06:00.209Z,10.70
2022-08-09T03:11:06.877Z,10.60
2022-08-09T03:16:17.217Z,10.60
2022-08-09T03:21:25.888Z,10.70
2022-08-09T03:26:34.407Z,10.20
2022-08-09T03:31:42.747Z,10.70
2022-08-09T03:36:59.777Z,10.40
2022-08-09T03:42:06.689Z,10.50
2022-08-09T03:47:02.933Z,10.50
2022-08-09T03:52:11.547Z,10.70
2022-08-09T03:57:20.798Z,10.50
2022-08-09T04:02:30.720Z,10.10
2022-08-09T04:07:53.506Z,9.90
2022-08-09T04:12:51.564Z,10.30
2022-08-09T04:17:57.768Z,10.50
2022-08-09T04:23:09.694Z,10.80
2022-08-09T04:28:12.506Z,11.10
2022-08-09T04:33:18.153Z,10.80
2022-08-09T04:38:23.164Z,11.10
2022-08-09T04:43:28.864Z,11.00
2022-08-09T04:48:35.784Z,11.40
2022-08-09T04:53:43.679Z,11.80
2022-08-09T04:58:48.758Z,12.20
2022-08-09T05:03:56.827Z,12.40
2022-08-09T05:09:02.893Z,12.60
2022-08-09T05:14:08.106Z,13.10
2022-08-09T05:19:18.222Z,13.50
2022-08-09T05:24:24.139Z,13.80
2022-08-09T05:29:31.196Z,13.80
2022-08-09T05:34:36.221Z,14.30
2022-08-09T05:39:44.190Z,14.70
2022-08-09T05:44:52.175Z,15.20
2022-08-09T05:50:31.137Z,15.40
2022-08-09T05:55:07.247Z,15.80
2022-08-09T06:00:13.105Z,16.00
2022-08-09T06:05:18.278Z,16.40
2022-08-09T06:10:27.129Z,16.70
2022-08-09T06:15:32.059Z,17.10
2022-08-09T06:20:37.477Z,17.70
2022-08-09T06:25:42.022Z,17.90
2022-08-09T06:30:48.364Z,18.30
2022-08-09T06:35:57.185Z,18.30
2022-08-09T06:41:01.142Z,18.30
2022-08-09T06:46:10.905Z,18.90
2022-08-09T06:51:16.074Z,19.10
2022-08-09T06:56:30.510Z,19.50
2022-08-09T07:01:35.613Z,19.70
2022-08-09T07:06:37.191Z,20.00
2022-08-09T07:11:52.297Z,20.60
2022-08-09T07:16:55.307Z,20.60
2022-08-09T07:21:59.768Z,20.70
2022-08-09T07:27:04.233Z,20.90
2022-08-09T07:32:11.137Z,21.30
2022-08-09T07:37:16.881Z,21.70
2022-08-09T07:42:32.379Z,21.80
2022-08-09T07:47:32.132Z,22.20
2022-08-09T07:52:40.736Z,22.50
2022-08-09T07:57:49.447Z,22.80
2022-08-09T08:02:55.210Z,22.60
2022-08-09T08:08:44.351Z,22.20
2022-08-09T08:13:11.533Z,22.40
2022-08-09T08:18:18.480Z,22.90
2022-08-09T08:23:27.300Z,22.90
2022-08-09T08:28:33.112Z,22.80
2022-08-09T08:33:40.651Z,22.70
2022-08-09T08:38:49.909Z,22.80
2022-08-09T08:44:01.996Z,23.70
2022-08-09T08:49:03.642Z,23.70
2022-08-09T08:54:20.331Z,23.70
2022-08-09T08:59:20.554Z,23.90
2022-08-09T09:04:41.293Z,24.10
2022-08-09T09:10:02.302Z,24.10
2022-08-09T09:14:49.805Z,24.20
2022-08-09T09:19:56.686Z,24.40
2022-08-09T09:26:02.377Z,25.00
2022-08-09T09:35:21.519Z,24.90
2022-08-09T09:40:46.135Z,25.00
2022-08-09T09:46:38.861Z,26.20
2022-08-09T09:51:03.551Z,24.40
2022-08-09T09:56:20.141Z,24.90
2022-08-09T10:01:37.306Z,23.20
2022-08-09T10:06:42.846Z,22.10
2022-08-09T10:12:00.527Z,21.90
2022-08-09T10:17:11.405Z,22.00
2022-08-09T10:22:02.843Z,22.60
2022-08-09T10:27:10.388Z,23.50
2022-08-09T10:37:25.264Z,24.20
2022-08-09T10:42:32.999Z,23.80
2022-08-09T10:48:14.248Z,24.30
2022-08-09T10:53:10.460Z,24.70
2022-08-09T10:58:35.348Z,24.50
2022-08-09T11:03:50.667Z,24.60
2022-08-09T11:08:54.958Z,24.60
2022-08-09T11:14:44.106Z,24.30
2022-08-09T11:20:10.080Z,25.50
2022-08-09T11:25:13.217Z,24.30
2022-08-09T11:30:34.312Z,25.00
2022-08-09T11:35:49.615Z,25.30
2022-08-09T11:40:54.829Z,25.60
2022-08-09T11:46:02.905Z,25.70
2022-08-09T11:52:48.826Z,25.80
2022-08-09T11:56:21.267Z,25.70
2022-08-09T12:02:00.888Z,25.70
2022-08-09T12:06:56.012Z,25.10
2022-08-09T12:12:04.210Z,24.30
2022-08-09T12:17:27.687Z,25.10
2022-08-09T12:22:24.239Z,25.10
2022-08-09T12:29:13.567Z,25.10
2022-08-09T12:32:40.831Z,25.10
2022-08-09T12:37:51.468Z,24.80
2022-08-09T12:42:55.247Z,25.10
2022-08-09T12:48:01.661Z,26.10
2022-08-09T12:53:18.204Z,27.10
2022-08-09T12:58:24.265Z,26.20
2022-08-09T13:03:56.743Z,25.30
2022-08-09T13:08:40.867Z,25.20
2022-08-09T13:14:37.381Z,24.50
2022-08-09T13:18:54.594Z,25.00
2022-08-09T13:24:44.720Z,25.40
2022-08-09T13:29:28.641Z,25.50
2022-08-09T13:34:32.337Z,24.20
2022-08-09T13:41:49.628Z,24.50
2022-08-09T13:44:48.667Z,25.30
2022-08-09T13:49:57.782Z,25.80
2022-08-09T13:55:05.187Z,26.30
2022-08-09T14:00:16.391Z,24.50
2022-08-09T14:05:58.426Z,24.40
2022-08-09T14:10:37.224Z,24.90
2022-08-09T14:16:09.786Z,25.30
2022-08-09T14:20:42.623Z,25.80
2022-08-09T14:25:51.620Z,26.20
2022-08-09T14:30:57.642Z,26.20
2022-08-09T14:36:19.479Z,26.50
2022-08-09T14:41:34.872Z,26.80
2022-08-09T14:46:58.274Z,25.80
2022-08-09T14:51:24.341Z,24.70
2022-08-09T14:56:30.278Z,23.70
2022-08-09T15:01:36.244Z,23.30
2022-08-09T15:06:41.473Z,22.90
2022-08-09T15:11:50.237Z,22.80
2022-08-09T15:16:56.325Z,23.30
2022-08-09T15:22:03.590Z,23.50
2022-08-09T15:27:09.185Z,23.60
2022-08-09T15:32:29.414Z,23.90
2022-08-09T15:37:37.372Z,24.50
2022-08-09T15:42:44.897Z,24.30
2022-08-09T15:48:03.161Z,23.50
2022-08-09T15:53:06.928Z,23.20
2022-08-09T15:58:05.262Z,23.30
2022-08-09T16:03:26.619Z,23.50
2022-08-09T16:08:30.733Z,23.60
2022-08-09T16:14:02.753Z,23.70
2022-08-09T16:18:35.698Z,23.40
2022-08-09T16:23:41.519Z,23.70
2022-08-09T16:28:47.955Z,23.90
2022-08-09T16:33:56.215Z,23.60
2022-08-09T16:39:03.303Z,23.90
2022-08-09T16:44:10.445Z,23.80
2022-08-09T16:50:28.374Z,23.70
2022-08-09T16:54:34.253Z,23.30
2022-08-09T16:59:34.642Z,23.10
2022-08-09T17:04:39.322Z,22.90
2022-08-09T17:09:47.250Z,22.60
2022-08-09T17:14:58.212Z,22.20
2022-08-09T17:20:29.797Z,22.10
2022-08-09T17:25:11.636Z,22.10
2022-08-09T17:30:17.484Z,22.20
2022-08-09T17:35:24.550Z,22.00
2022-08-09T17:40:32.700Z,22.10
2022-08-09T17:46:01.997Z,22.30
2022-08-09T17:50:48.614Z,21.90
2022-08-09T17:56:00.035Z,21.70
2022-08-09T18:01:01.317Z,21.60
2022-08-09T18:06:14.848Z,21.10
2022-08-09T18:11:16.314Z,20.60
2022-08-09T18:16:29.238Z,20.10
2022-08-09T18:21:40.974Z,19.90
2022-08-09T18:26:46.470Z,20.00
2022-08-09T18:31:55.582Z,19.40
2022-08-09T18:36:54.441Z,19.20
2022-08-09T18:42:02.987Z,19.00
2022-08-09T18:47:16.687Z,19.00
2022-08-09T18:52:34.482Z,18.40
2022-08-09T18:57:43.133Z,17.80
2022-08-09T19:02:38.937Z,18.00
2022-08-09T19:07:59.021Z,18.10
2022-08-09T19:13:08.860Z,18.10
2022-08-09T19:18:00.426Z,18.10
2022-08-09T19:23:06.686Z,17.30
2022-08-09T19:28:16.355Z,16.70
2022-08-09T19:33:23.616Z,16.40
2022-08-09T19:38:30.091Z,16.40
2022-08-09T19:44:01.756Z,16.80
2022-08-09T19:49:02.162Z,16.80
2022-08-09T19:53:50.641Z,16.70
2022-08-09T19:59:18.298Z,16.60
2022-08-09T20:04:17.067Z,16.30
2022-08-09T20:09:44.535Z,16.10
2022-08-09T20:14:21.940Z,16.10
2022-08-09T20:19:42.950Z,15.80
2022-08-09T20:24:36.280Z,15.80
2022-08-09T20:29:44.263Z,15.80
2022-08-09T20:34:50.951Z,15.60
2022-08-09T20:40:16.501Z,15.80
2022-08-09T20:45:59.709Z,15.30
2022-08-09T20:50:15.620Z,15.30
2022-08-09T20:55:20.684Z,15.30
2022-08-09T21:00:31.384Z,15.40
2022-08-09T21:05:57.206Z,15.20
2022-08-09T21:10:43.928Z,15.10
2022-08-09T21:15:55.210Z,15.00
2022-08-09T21:20:59.049Z,15.00
2022-08-09T21:26:05.076Z,14.50
2022-08-09T21:31:16.110Z,14.50
2022-08-09T21:36:23.324Z,14.50
2022-08-09T21:42:00.281Z,14.20
2022-08-09T21:46:38.552Z,14.40
2022-08-09T21:51:44.079Z,14.40
2022-08-09T21:56:54.345Z,14.50
2022-08-09T22:02:00.697Z,14.50
2022-08-09T22:07:04.598Z,14.50
2022-08-09T22:12:18.994Z,14.50
2022-08-09T22:17:16.374Z,14.40
2022-08-09T22:22:24.858Z,14.30
2022-08-09T22:27:31.232Z,14.20
2022-08-09T22:32:38.545Z,14.20
2022-08-09T22:37:44.111Z,14.10
2022-08-09T22:42:49.170Z,13.60
2022-08-09T22:48:14.399Z,13.60
2022-08-09T22:53:03.808Z,13.30
2022-08-09T22:58:08.935Z,13.50
2022-08-09T23:03:16.549Z,13.20
2022-08-09T23:08:41.670Z,13.50
2022-08-09T23:13:50.187Z,13.30
2022-08-09T23:18:55.635Z,13.30
2022-08-09T23:24:06.605Z,13.20
2022-08-09T23:29:12.122Z,13.30
2022-08-09T23:34:17.431Z,13.70
2022-08-09T23:44:46.924Z,13.20
2022-08-09T23:49:52.433Z,13.40
2022-08-09T23:54:57.980Z,13.40
